KSEE/SEE METAR and TAF weather

Enter ICAO airport designator
Station Type Date Time Source
KSEE METAR 2021/07/29 18:47 UTC NOAA

KSEE 291847Z 27012KT 10SM SKC 31/14 A2989


Station Type Date Time Source
KSEE Decoded METAR 2021/07/29 18:47 UTC NOAA

San Diego/El Cajon, Gillespie Field Airport, CA, United States (KSEE) 32-49-34N 116-58-20W
Jul 29, 2021 - 02:47 PM EDT / 2021.07.29 1847 UTC
Wind: from the W (270 degrees) at 14 MPH (12 KT):0
Visibility: 10 mile(s):0
Sky conditions: clear
Temperature: 87 F (31 C)
Dew Point: 57 F (14 C)
Relative Humidity: 35%
Pressure (altimeter): 29.89 in. Hg (1012 hPa)
ob: KSEE 291847Z 27012KT 10SM SKC 31/14 A2989
cycle: 19

Station Type Date Time Source
KSEE TAF UTC NOAA

Error!

Example: see airport list